»·PEaware :: N335AK KSBA-KVGT

N335AK :: KSBA-KVGT

FLIGHT INFORMATION

Flight Status: Arrived
Operator: Privately registered:
United States
More flights under this callsign
Pilot: Gabor H. (24209)
Aircraft: Unknown
(EPIC)
More flights by this aircraft type
Origin: KSBA Santa Barbara Mun
United States
Destination: KVGT North Las Vegas
United States
More flights between these airports :: More routes between these airports
Route: KWANG5 GINNA DAG V587 BLD
File this flight plan on PilotEdge
Remarks:
Altitude:
(Current/Filed)
23,000ft
Speed:
(Current/Filed)
315kts
Departed: 13-Jul-20 01:19 PM
Arrived: 13-Jul-20 02:19 PM
Distance/Time
Traveled:
251nm/1:00
Distance/Time
To Go:
Arrived

Flight Plot

Page will automatically refresh every two minutes.

Flight plan parsing failed; only flown route is shown


Map Options




Map Legend


Flown Route
Filed Route
Departure Airport
Arrival Airport
Navaid (VOR, NDB)
Fix

Horizontal Profiles

Position Reports

Time Latitude Longitude Heading Altitude Ground
Speed
13-Jul-20 13:02 34.422714 -119.835884 161 16ft 0kts
13-Jul-20 13:03 34.422714 -119.835884 161 16ft 0kts
13-Jul-20 13:04 34.422714 -119.835884 161 16ft 0kts
13-Jul-20 13:05 34.422714 -119.835884 161 16ft 0kts
13-Jul-20 13:06 34.422714 -119.835884 161 16ft 0kts
13-Jul-20 13:07 34.422714 -119.835884 161 16ft 0kts
13-Jul-20 13:08 34.422714 -119.835884 161 16ft 0kts
13-Jul-20 13:09 34.422714 -119.835884 161 16ft 0kts
13-Jul-20 13:10 34.422714 -119.835884 161 16ft 0kts
13-Jul-20 13:11 34.422714 -119.835884 161 16ft 0kts
13-Jul-20 13:12 34.422714 -119.835884 161 16ft 0kts
13-Jul-20 13:13 34.422478 -119.836188 265 16ft 0kts
13-Jul-20 13:14 34.423623 -119.837432 347 16ft 7kts
13-Jul-20 13:15 34.426736 -119.837294 90 16ft 13kts
13-Jul-20 13:16 34.426786 -119.834991 88 16ft 0kts
13-Jul-20 13:17 34.427477 -119.834663 348 16ft 11kts
13-Jul-20 13:18 34.427764 -119.847134 261 328ft 115kts
13-Jul-20 13:19 34.402226 -119.845083 89 2853ft 181kts
13-Jul-20 13:20 34.408025 -119.774508 112 4339ft 221kts
13-Jul-20 13:21 34.382578 -119.706285 116 7406ft 229kts
13-Jul-20 13:22 34.351948 -119.626180 116 8004ft 287kts
13-Jul-20 13:23 34.322114 -119.548062 116 10302ft 244kts
13-Jul-20 13:24 34.299032 -119.469802 106 12919ft 253kts
13-Jul-20 13:25 34.279954 -119.386494 106 15271ft 261kts
13-Jul-20 13:26 34.260397 -119.301371 107 17293ft 262kts
13-Jul-20 13:27 34.241055 -119.217336 107 19270ft 256kts
13-Jul-20 13:28 34.222244 -119.136005 106 21238ft 247kts
13-Jul-20 13:29 34.214352 -119.056093 88 22980ft 248kts
13-Jul-20 13:30 34.217881 -118.963162 88 23007ft 298kts
13-Jul-20 13:31 34.221980 -118.858992 88 23001ft 317kts
13-Jul-20 13:32 34.248616 -118.756670 68 22997ft 325kts
13-Jul-20 13:33 34.282983 -118.655380 68 22998ft 326kts
13-Jul-20 13:34 34.317441 -118.553354 68 23005ft 326kts
13-Jul-20 13:35 34.351764 -118.451417 68 23013ft 327kts
13-Jul-20 13:36 34.385705 -118.350266 68 23021ft 327kts
13-Jul-20 13:37 34.419894 -118.248042 69 23021ft 327kts
13-Jul-20 13:38 34.453990 -118.145768 69 23016ft 326kts
13-Jul-20 13:39 34.487740 -118.044183 69 23017ft 324kts
13-Jul-20 13:40 34.521291 -117.942886 69 23017ft 324kts
13-Jul-20 13:41 34.554809 -117.841339 69 23017ft 324kts
13-Jul-20 13:42 34.588289 -117.739573 69 23045ft 323kts
13-Jul-20 13:43 34.621531 -117.638191 69 23084ft 323kts
13-Jul-20 13:45 34.654689 -117.536738 69 23109ft 324kts
13-Jul-20 13:46 34.688059 -117.434291 69 23109ft 327kts
13-Jul-20 13:47 34.721263 -117.332004 69 23109ft 328kts
13-Jul-20 13:48 34.754692 -117.228661 69 23091ft 328kts
13-Jul-20 13:49 34.788095 -117.125063 69 23039ft 330kts
13-Jul-20 13:50 34.821642 -117.020648 69 22966ft 332kts
13-Jul-20 13:51 34.855378 -116.915243 69 22925ft 336kts
13-Jul-20 13:52 34.889436 -116.808511 69 22918ft 339kts
13-Jul-20 13:53 34.923665 -116.700840 69 22918ft 341kts
13-Jul-20 13:54 34.957847 -116.592921 69 22921ft 342kts
13-Jul-20 13:55 35.001988 -116.489463 61 22931ft 344kts
13-Jul-20 13:56 35.047616 -116.386636 61 22947ft 346kts
13-Jul-20 13:57 35.093544 -116.282857 62 22945ft 347kts
13-Jul-20 13:58 35.139461 -116.178751 62 22942ft 347kts
13-Jul-20 13:59 35.184924 -116.075367 62 22943ft 346kts
13-Jul-20 14:00 35.230482 -115.971447 62 22943ft 346kts
13-Jul-20 14:01 35.275977 -115.867353 62 22942ft 347kts
13-Jul-20 14:02 35.325853 -115.767266 47 22947ft 347kts
13-Jul-20 14:03 35.393311 -115.676910 46 20843ft 371kts
13-Jul-20 14:03 35.451209 -115.599592 47 18513ft 368kts
13-Jul-20 14:05 35.529628 -115.494540 47 15253ft 352kts
13-Jul-20 14:06 35.595697 -115.405838 46 12992ft 350kts
13-Jul-20 14:06 35.649890 -115.332919 47 11414ft 339kts
13-Jul-20 14:07 35.709579 -115.252433 47 10089ft 302kts
13-Jul-20 14:08 35.765627 -115.176633 47 10089ft 303kts
13-Jul-20 14:09 35.834909 -115.134327 11 9350ft 265kts
13-Jul-20 14:10 35.904377 -115.112061 11 7368ft 251kts
13-Jul-20 14:11 35.967114 -115.091366 11 7071ft 232kts
13-Jul-20 14:12 36.032502 -115.069246 11 7051ft 250kts
13-Jul-20 14:13 36.100575 -115.056600 353 6969ft 244kts
13-Jul-20 14:14 36.165865 -115.060112 353 5610ft 223kts
13-Jul-20 14:15 36.216675 -115.080978 272 4048ft 185kts
13-Jul-20 14:16 36.215913 -115.136239 257 2838ft 131kts
13-Jul-20 14:17 36.214025 -115.175826 253 2365ft 90kts
13-Jul-20 14:18 36.212983 -115.194855 175 2191ft 10kts
13-Jul-20 14:19 36.212834 -115.194848 179 2191ft 0kts
13-Jul-20 14:20 36.210754 -115.197662 237 2195ft 22kts
13-Jul-20 14:21 36.209291 -115.198454 295 2195ft 4kts
13-Jul-20 14:22 36.209410 -115.198606 314 2196ft 0kts
13-Jul-20 14:23 36.209410 -115.198606 314 2196ft 0kts
13-Jul-20 14:24 36.209410 -115.198606 314 2196ft 0kts
13-Jul-20 14:25 36.209410 -115.198606 314 2196ft 0kts
13-Jul-20 14:26 36.209410 -115.198606 314 2196ft 0kts
13-Jul-20 14:27 36.209410 -115.198606 314 2196ft 0kts

Navigation Log

Ident Type
Flight plan parsing failed, navigation log unavailable